This is the latest recevied weather packets stored in our database for station/object KG4QXL-1. If no packets are shown the sender has not sent any weather packets the latest 10 day(s).
| Time | Temp. | Humidity | Pressure | Rain* | Wind** | Luminosity | Snow |
|---|---|---|---|---|---|---|---|
| 1777592158 | 11.11° C | 65% | 1020.1 hPa | 0 mm | - | 13 W/m² | - |
| 1777575358 | 18.33° C | 39% | 1016.4 hPa | 0 mm | - | 316 W/m² | - |
| 1777573558 | 17.78° C | 41% | 1016.4 hPa | 0 mm | - | 683 W/m² | - |
| 1777572359 | 16.67° C | 41% | 1016.5 hPa | 0 mm | - | 182 W/m² | - |
| 1777569358 | 16.67° C | 47% | 1016.2 hPa | 0 mm | - | 826 W/m² | - |
| 1777568758 | 16.67° C | 46% | 1016.2 hPa | 0 mm | - | 221 W/m² | - |
| 1777566958 | 17.22° C | 46% | 1016.3 hPa | 0 mm | - | 791 W/m² | - |
| 1777566358 | 16.11° C | 51% | 1016.7 hPa | 0 mm | - | 543 W/m² | - |
| 1777563358 | 16.67° C | 55% | 1015.9 hPa | 0 mm | - | 238 W/m² | - |
| 1777560958 | 15° C | 58% | 1017.1 hPa | 0 mm | - | 126 W/m² | - |
| 1777559758 | 14.44° C | 60% | 1017 hPa | 0 mm | - | 73 W/m² | - |
| 1777558558 | 13.89° C | 63% | 1017.2 hPa | 0 mm | - | 105 W/m² | - |
| 1777556759 | 13.89° C | 65% | 1017.5 hPa | 0 mm | - | 80 W/m² | - |
| 1777554358 | 12.78° C | 81% | 1017.2 hPa | 0 mm | - | 83 W/m² | - |
| 1777549558 | 10.56° C | 99% | 1016.9 hPa | 0 mm | - | 60 W/m² | - |
| 1777548958 | 10° C | 99% | 1016.9 hPa | 0 mm | - | 40 W/m² | - |
| 1777547179 | 10° C | 99% | 1016.5 hPa | 0 mm | - | 9 W/m² | - |
| 1777538158 | 10.56° C | 99% | 1015.8 hPa | 0 mm | - | 0 W/m² | - |
| 1777534558 | 10.56° C | 99% | 1015.6 hPa | 0 mm | - | 0 W/m² | - |
| 1777533958 | 10.56° C | 99% | 1015.5 hPa | 0 mm | - | 0 W/m² | - |
| 1777529758 | 11.11° C | 99% | 1014.9 hPa | 0 mm | - | 0 W/m² | - |
| 1777528558 | 11.11° C | 99% | 1015.3 hPa | 0 mm | - | 0 W/m² | - |
| 1777526758 | 11.67° C | 99% | 1015.3 hPa | 0 mm | - | 0 W/m² | - |
| 1777521958 | 12.78° C | 99% | 1015.1 hPa | 0 mm | - | 0 W/m² | - |
| 1777516558 | 13.89° C | 99% | 1015.2 hPa | 0 mm | - | 0 W/m² | - |
* Rain latest hour (hover to see other rain measurements)
** Current wind speed in m/s (hover to see current wind gust speed)